Airfield :
LOGIN :

Register | Disclaimer

   EN    FR    IT 

 










Legend :    VFR   Marginal VFR   IFR   Intensive IFR   Very Intensive IFR
Visi :
Ceiling :
>= 8 km
>= 3000ft
5 to 8 km
1000 to 3000 ft
1500m to 5 km
500 to 1000 ft
800 to 1500m
200 to 500 ft
< 800m
< 200 ft
Symbols :   Thunderstorms  Fog  Heavy snow  Heavy precipitations  Wind > 20 kt
SIGMETs :     Misc.  Thunderstorms  Icing  Turbulence  Mountain Waves  Volcanic Ashes







- Airport Elevation : -11 ft
- IATA code : AMS


EHAM - Amsterdam Schiphol

CURRENT METAR :
  • 300025Z 20006KT CAVOK 12/10 Q1024 NOSIG

EXPIRED METARs :
  • 292355Z 21006KT CAVOK 12/10 Q1024 NOSIG
  • 292325Z 20005KT CAVOK 12/09 Q1024 NOSIG
  • 292255Z 23010KT CAVOK 13/09 Q1024 NOSIG
  • 292225Z 23010KT 200V260 CAVOK 13/09 Q1024 NOSIG
  • 292155Z 24012KT 210V270 9999 SCT045 13/09 Q1024 NOSIG

TAF TAF EHAM
Valid from the 30 at 00:00 until the 31 at 06:00 UTC


292254Z 3000/3106 22010KT 9999 SCT045
PROB30
TEMPO 3000/3006 7000 -RA
BECMG 3016/3019 16008KT
No reported NOTAMs for that airfield.



MET'MAP, your aeronautical weather chart ! - Copyright ORBIFLY December 2007 - Disclaimer

ORBIFLY MET'MAP TEAM :

Programming & Development : Alexandra Zaïnal
Concept & Development : Baudouin d'Aumeries
Co-Development & Prog : Marc-Olivier Méhu
Technical & hardware support : Manuel Goepfert

Contact : metmap@orbifly.com




SOURCES & CREDITS :

   NOAA